sensor_id;sensor_type;location;lat;lon;timestamp;temperature;humidity
3380;DHT22;1703;51.964;7.642;2022-11-04T00:01:41;13.30;99.90
3380;DHT22;1703;51.964;7.642;2022-11-04T00:04:14;13.30;99.90
3380;DHT22;1703;51.964;7.642;2022-11-04T00:06:56;13.20;99.90
3380;DHT22;1703;51.964;7.642;2022-11-04T00:10:07;13.10;99.90
3380;DHT22;1703;51.964;7.642;2022-11-04T00:12:47;13.00;99.90
3380;DHT22;1703;51.964;7.642;2022-11-04T00:15:40;12.90;99.90
3380;DHT22;1703;51.964;7.642;2022-11-04T00:18:24;12.70;99.90
3380;DHT22;1703;51.964;7.642;2022-11-04T00:20:58;12.40;99.90
3380;DHT22;1703;51.964;7.642;2022-11-04T00:23:46;12.30;99.90
3380;DHT22;1703;51.964;7.642;2022-11-04T00:26:43;12.10;99.90
3380;DHT22;1703;51.964;7.642;2022-11-04T00:29:31;12.20;99.90
3380;DHT22;1703;51.964;7.642;2022-11-04T00:31:57;12.10;99.90
3380;DHT22;1703;51.964;7.642;2022-11-04T00:34:42;12.10;99.90
3380;DHT22;1703;51.964;7.642;2022-11-04T00:37:10;12.10;99.90
3380;DHT22;1703;51.964;7.642;2022-11-04T00:39:36;12.10;99.90
3380;DHT22;1703;51.964;7.642;2022-11-04T00:42:04;12.10;99.90
3380;DHT22;1703;51.964;7.642;2022-11-04T00:44:30;12.20;99.90
3380;DHT22;1703;51.964;7.642;2022-11-04T00:46:57;12.10;99.90
3380;DHT22;1703;51.964;7.642;2022-11-04T00:49:24;12.10;99.90
3380;DHT22;1703;51.964;7.642;2022-11-04T00:51:51;12.10;99.90
3380;DHT22;1703;51.964;7.642;2022-11-04T00:54:19;12.10;99.90
3380;DHT22;1703;51.964;7.642;2022-11-04T00:56:46;12.00;99.90
3380;DHT22;1703;51.964;7.642;2022-11-04T00:59:13;12.00;99.90
3380;DHT22;1703;51.964;7.642;2022-11-04T01:01:40;12.00;99.90
3380;DHT22;1703;51.964;7.642;2022-11-04T01:04:08;11.90;99.90
3380;DHT22;1703;51.964;7.642;2022-11-04T01:06:35;11.80;99.90
3380;DHT22;1703;51.964;7.642;2022-11-04T01:09:05;11.90;99.90
3380;DHT22;1703;51.964;7.642;2022-11-04T01:11:34;11.80;99.90
3380;DHT22;1703;51.964;7.642;2022-11-04T01:14:01;11.80;99.90
3380;DHT22;1703;51.964;7.642;2022-11-04T01:16:28;11.80;99.90
3380;DHT22;1703;51.964;7.642;2022-11-04T01:18:55;11.70;99.90
3380;DHT22;1703;51.964;7.642;2022-11-04T01:21:22;11.80;99.90
3380;DHT22;1703;51.964;7.642;2022-11-04T01:23:49;11.70;99.90
3380;DHT22;1703;51.964;7.642;2022-11-04T01:26:17;11.70;99.90
3380;DHT22;1703;51.964;7.642;2022-11-04T01:28:46;11.70;99.90
3380;DHT22;1703;51.964;7.642;2022-11-04T01:31:14;11.70;99.90
3380;DHT22;1703;51.964;7.642;2022-11-04T01:33:41;11.70;99.90
3380;DHT22;1703;51.964;7.642;2022-11-04T01:36:09;11.60;99.90
3380;DHT22;1703;51.964;7.642;2022-11-04T01:38:37;11.60;99.90
3380;DHT22;1703;51.964;7.642;2022-11-04T01:41:04;11.60;99.90
3380;DHT22;1703;51.964;7.642;2022-11-04T01:43:43;11.70;99.90
3380;DHT22;1703;51.964;7.642;2022-11-04T01:46:17;11.70;99.90
3380;DHT22;1703;51.964;7.642;2022-11-04T01:48:46;11.60;99.90
3380;DHT22;1703;51.964;7.642;2022-11-04T01:51:13;11.60;99.90
3380;DHT22;1703;51.964;7.642;2022-11-04T01:53:42;11.70;99.90
3380;DHT22;1703;51.964;7.642;2022-11-04T01:56:11;11.80;99.90
3380;DHT22;1703;51.964;7.642;2022-11-04T01:58:43;11.70;99.90
3380;DHT22;1703;51.964;7.642;2022-11-04T02:01:13;11.70;99.90
3380;DHT22;1703;51.964;7.642;2022-11-04T02:03:43;11.60;99.90
3380;DHT22;1703;51.964;7.642;2022-11-04T02:06:13;11.50;99.90
3380;DHT22;1703;51.964;7.642;2022-11-04T02:08:41;11.50;99.90
3380;DHT22;1703;51.964;7.642;2022-11-04T02:11:08;11.50;99.90
3380;DHT22;1703;51.964;7.642;2022-11-04T02:13:36;11.60;99.90
3380;DHT22;1703;51.964;7.642;2022-11-04T02:16:09;11.60;99.90
3380;DHT22;1703;51.964;7.642;2022-11-04T02:18:50;11.50;99.90
3380;DHT22;1703;51.964;7.642;2022-11-04T02:21:42;11.40;99.90
3380;DHT22;1703;51.964;7.642;2022-11-04T02:24:42;11.40;99.90
3380;DHT22;1703;51.964;7.642;2022-11-04T02:27:20;11.30;99.90
3380;DHT22;1703;51.964;7.642;2022-11-04T02:30:00;11.30;99.90
3380;DHT22;1703;51.964;7.642;2022-11-04T02:32:38;11.30;99.90
3380;DHT22;1703;51.964;7.642;2022-11-04T02:35:11;11.40;99.90
3380;DHT22;1703;51.964;7.642;2022-11-04T02:37:49;11.40;99.90
3380;DHT22;1703;51.964;7.642;2022-11-04T02:40:26;11.30;99.90
3380;DHT22;1703;51.964;7.642;2022-11-04T02:42:57;11.30;99.90
3380;DHT22;1703;51.964;7.642;2022-11-04T02:45:33;11.40;99.90
3380;DHT22;1703;51.964;7.642;2022-11-04T02:48:06;11.50;99.90
3380;DHT22;1703;51.964;7.642;2022-11-04T02:50:37;11.50;99.90
3380;DHT22;1703;51.964;7.642;2022-11-04T02:53:09;11.50;99.90
3380;DHT22;1703;51.964;7.642;2022-11-04T02:55:41;11.40;99.90
3380;DHT22;1703;51.964;7.642;2022-11-04T02:58:13;11.40;99.90
3380;DHT22;1703;51.964;7.642;2022-11-04T03:00:43;11.40;99.90
3380;DHT22;1703;51.964;7.642;2022-11-04T03:03:12;11.30;99.90
3380;DHT22;1703;51.964;7.642;2022-11-04T03:05:44;11.30;99.90
3380;DHT22;1703;51.964;7.642;2022-11-04T03:08:15;11.40;99.90
3380;DHT22;1703;51.964;7.642;2022-11-04T03:10:44;11.40;99.90
3380;DHT22;1703;51.964;7.642;2022-11-04T03:13:15;11.30;99.90
3380;DHT22;1703;51.964;7.642;2022-11-04T03:15:49;11.40;99.90
3380;DHT22;1703;51.964;7.642;2022-11-04T03:18:22;11.30;99.90
3380;DHT22;1703;51.964;7.642;2022-11-04T03:20:50;11.30;99.90
3380;DHT22;1703;51.964;7.642;2022-11-04T03:23:18;11.20;99.90
3380;DHT22;1703;51.964;7.642;2022-11-04T03:25:47;11.30;99.90
3380;DHT22;1703;51.964;7.642;2022-11-04T03:28:24;11.20;99.90
3380;DHT22;1703;51.964;7.642;2022-11-04T03:30:55;11.10;99.90
3380;DHT22;1703;51.964;7.642;2022-11-04T03:33:29;11.20;99.90
3380;DHT22;1703;51.964;7.642;2022-11-04T03:35:59;11.10;99.90
3380;DHT22;1703;51.964;7.642;2022-11-04T03:38:27;11.20;99.90
3380;DHT22;1703;51.964;7.642;2022-11-04T03:40:54;11.20;99.90
3380;DHT22;1703;51.964;7.642;2022-11-04T03:43:24;11.10;99.90
3380;DHT22;1703;51.964;7.642;2022-11-04T03:45:53;11.10;99.90
3380;DHT22;1703;51.964;7.642;2022-11-04T03:48:21;11.20;99.90
3380;DHT22;1703;51.964;7.642;2022-11-04T03:50:48;11.20;99.90
3380;DHT22;1703;51.964;7.642;2022-11-04T03:53:20;11.20;99.90
3380;DHT22;1703;51.964;7.642;2022-11-04T03:56:04;11.10;99.90
3380;DHT22;1703;51.964;7.642;2022-11-04T03:58:42;11.10;99.90
3380;DHT22;1703;51.964;7.642;2022-11-04T04:01:22;11.10;99.90
3380;DHT22;1703;51.964;7.642;2022-11-04T04:03:56;11.10;99.90
3380;DHT22;1703;51.964;7.642;2022-11-04T04:06:27;11.00;99.90
3380;DHT22;1703;51.964;7.642;2022-11-04T04:08:58;11.10;99.90
3380;DHT22;1703;51.964;7.642;2022-11-04T04:11:32;11.10;99.90
3380;DHT22;1703;51.964;7.642;2022-11-04T04:14:07;11.10;99.90
3380;DHT22;1703;51.964;7.642;2022-11-04T04:16:42;11.10;99.90
3380;DHT22;1703;51.964;7.642;2022-11-04T04:19:12;11.10;99.90
3380;DHT22;1703;51.964;7.642;2022-11-04T04:21:43;11.00;99.90
3380;DHT22;1703;51.964;7.642;2022-11-04T04:24:11;11.10;99.90
3380;DHT22;1703;51.964;7.642;2022-11-04T04:26:58;11.10;99.90
3380;DHT22;1703;51.964;7.642;2022-11-04T04:29:43;11.10;99.90
3380;DHT22;1703;51.964;7.642;2022-11-04T04:32:12;11.20;99.90
3380;DHT22;1703;51.964;7.642;2022-11-04T04:34:40;11.10;99.90
3380;DHT22;1703;51.964;7.642;2022-11-04T04:37:10;11.20;99.90
3380;DHT22;1703;51.964;7.642;2022-11-04T04:39:41;11.20;99.90
3380;DHT22;1703;51.964;7.642;2022-11-04T04:42:31;11.20;99.90
3380;DHT22;1703;51.964;7.642;2022-11-04T04:45:20;11.10;99.90
3380;DHT22;1703;51.964;7.642;2022-11-04T04:47:50;11.20;99.90
3380;DHT22;1703;51.964;7.642;2022-11-04T04:50:19;11.10;99.90
3380;DHT22;1703;51.964;7.642;2022-11-04T04:52:48;11.20;99.90
3380;DHT22;1703;51.964;7.642;2022-11-04T04:55:16;11.20;99.90
3380;DHT22;1703;51.964;7.642;2022-11-04T04:57:43;11.30;99.90
3380;DHT22;1703;51.964;7.642;2022-11-04T05:00:13;11.30;99.90
3380;DHT22;1703;51.964;7.642;2022-11-04T05:02:40;11.30;99.90
3380;DHT22;1703;51.964;7.642;2022-11-04T05:05:09;11.30;99.90
3380;DHT22;1703;51.964;7.642;2022-11-04T05:07:37;11.40;99.90
3380;DHT22;1703;51.964;7.642;2022-11-04T05:10:05;11.40;99.90
3380;DHT22;1703;51.964;7.642;2022-11-04T05:12:34;11.40;99.90
3380;DHT22;1703;51.964;7.642;2022-11-04T05:15:14;11.40;99.90
3380;DHT22;1703;51.964;7.642;2022-11-04T05:17:42;11.30;99.90
3380;DHT22;1703;51.964;7.642;2022-11-04T05:20:10;11.30;99.90
3380;DHT22;1703;51.964;7.642;2022-11-04T05:22:37;11.30;99.90
3380;DHT22;1703;51.964;7.642;2022-11-04T05:25:05;11.30;99.90
3380;DHT22;1703;51.964;7.642;2022-11-04T05:27:31;11.30;99.90
3380;DHT22;1703;51.964;7.642;2022-11-04T05:29:58;11.40;99.90
3380;DHT22;1703;51.964;7.642;2022-11-04T05:32:27;11.30;99.90
3380;DHT22;1703;51.964;7.642;2022-11-04T05:34:54;11.30;99.90
3380;DHT22;1703;51.964;7.642;2022-11-04T05:37:22;11.30;99.90
3380;DHT22;1703;51.964;7.642;2022-11-04T05:39:49;11.30;99.90
3380;DHT22;1703;51.964;7.642;2022-11-04T05:42:17;11.30;99.90
3380;DHT22;1703;51.964;7.642;2022-11-04T05:44:44;11.20;99.90
3380;DHT22;1703;51.964;7.642;2022-11-04T05:47:10;11.20;99.90
3380;DHT22;1703;51.964;7.642;2022-11-04T05:49:37;11.20;99.90
3380;DHT22;1703;51.964;7.642;2022-11-04T05:52:04;11.10;99.90
3380;DHT22;1703;51.964;7.642;2022-11-04T05:54:32;11.10;99.90
3380;DHT22;1703;51.964;7.642;2022-11-04T05:56:59;11.10;99.90
3380;DHT22;1703;51.964;7.642;2022-11-04T05:59:26;11.10;99.90
3380;DHT22;1703;51.964;7.642;2022-11-04T06:01:53;11.10;99.90
3380;DHT22;1703;51.964;7.642;2022-11-04T06:04:19;11.00;99.90
3380;DHT22;1703;51.964;7.642;2022-11-04T06:06:46;11.00;99.90
3380;DHT22;1703;51.964;7.642;2022-11-04T06:09:13;11.00;99.90
3380;DHT22;1703;51.964;7.642;2022-11-04T06:11:41;11.20;99.90
3380;DHT22;1703;51.964;7.642;2022-11-04T06:14:08;11.20;99.90
3380;DHT22;1703;51.964;7.642;2022-11-04T06:16:35;11.20;99.90
3380;DHT22;1703;51.964;7.642;2022-11-04T06:19:01;11.30;99.90
3380;DHT22;1703;51.964;7.642;2022-11-04T06:21:29;11.20;99.90
3380;DHT22;1703;51.964;7.642;2022-11-04T06:23:57;11.20;99.90
3380;DHT22;1703;51.964;7.642;2022-11-04T06:26:25;11.20;99.90
3380;DHT22;1703;51.964;7.642;2022-11-04T06:28:54;11.10;99.90
3380;DHT22;1703;51.964;7.642;2022-11-04T06:31:20;11.20;99.90
3380;DHT22;1703;51.964;7.642;2022-11-04T06:33:47;11.20;99.90
3380;DHT22;1703;51.964;7.642;2022-11-04T06:36:15;11.10;99.90
3380;DHT22;1703;51.964;7.642;2022-11-04T06:38:42;11.20;99.90
3380;DHT22;1703;51.964;7.642;2022-11-04T06:41:11;11.20;99.90
3380;DHT22;1703;51.964;7.642;2022-11-04T06:43:39;11.20;99.90
3380;DHT22;1703;51.964;7.642;2022-11-04T06:46:23;11.10;99.90
3380;DHT22;1703;51.964;7.642;2022-11-04T06:48:50;11.20;99.90
3380;DHT22;1703;51.964;7.642;2022-11-04T06:51:17;11.30;99.90
3380;DHT22;1703;51.964;7.642;2022-11-04T06:53:43;11.20;99.90
3380;DHT22;1703;51.964;7.642;2022-11-04T06:56:10;11.30;99.90
3380;DHT22;1703;51.964;7.642;2022-11-04T06:58:37;11.40;99.90
3380;DHT22;1703;51.964;7.642;2022-11-04T07:01:04;11.40;99.90
3380;DHT22;1703;51.964;7.642;2022-11-04T07:03:32;11.40;99.90
3380;DHT22;1703;51.964;7.642;2022-11-04T07:06:04;11.50;99.90
3380;DHT22;1703;51.964;7.642;2022-11-04T07:08:31;11.60;99.90
3380;DHT22;1703;51.964;7.642;2022-11-04T07:10:58;11.60;99.90
3380;DHT22;1703;51.964;7.642;2022-11-04T07:13:24;11.60;99.90
3380;DHT22;1703;51.964;7.642;2022-11-04T07:15:51;11.70;99.90
3380;DHT22;1703;51.964;7.642;2022-11-04T07:18:18;11.70;99.90
3380;DHT22;1703;51.964;7.642;2022-11-04T07:20:46;11.70;99.90
3380;DHT22;1703;51.964;7.642;2022-11-04T07:23:13;11.70;99.90
3380;DHT22;1703;51.964;7.642;2022-11-04T07:25:40;11.80;99.90
3380;DHT22;1703;51.964;7.642;2022-11-04T07:28:07;11.80;99.90
3380;DHT22;1703;51.964;7.642;2022-11-04T07:30:34;11.90;99.90
3380;DHT22;1703;51.964;7.642;2022-11-04T07:33:01;11.90;99.90
3380;DHT22;1703;51.964;7.642;2022-11-04T07:35:27;12.00;99.90
3380;DHT22;1703;51.964;7.642;2022-11-04T07:37:55;12.00;99.90
3380;DHT22;1703;51.964;7.642;2022-11-04T07:40:22;12.00;99.90
3380;DHT22;1703;51.964;7.642;2022-11-04T07:42:49;11.90;99.90
3380;DHT22;1703;51.964;7.642;2022-11-04T07:45:17;11.90;99.90
3380;DHT22;1703;51.964;7.642;2022-11-04T07:47:43;12.00;99.90
3380;DHT22;1703;51.964;7.642;2022-11-04T07:50:10;12.00;99.90
3380;DHT22;1703;51.964;7.642;2022-11-04T07:52:38;12.00;99.90
3380;DHT22;1703;51.964;7.642;2022-11-04T07:55:08;12.00;99.90
3380;DHT22;1703;51.964;7.642;2022-11-04T07:57:35;12.00;99.90
3380;DHT22;1703;51.964;7.642;2022-11-04T08:00:03;12.10;99.90
3380;DHT22;1703;51.964;7.642;2022-11-04T08:02:37;12.10;99.90
3380;DHT22;1703;51.964;7.642;2022-11-04T08:05:05;12.10;99.90
3380;DHT22;1703;51.964;7.642;2022-11-04T08:07:33;12.10;99.90
3380;DHT22;1703;51.964;7.642;2022-11-04T08:10:09;12.10;99.90
3380;DHT22;1703;51.964;7.642;2022-11-04T08:12:35;12.20;99.90
3380;DHT22;1703;51.964;7.642;2022-11-04T08:15:04;12.20;99.90
3380;DHT22;1703;51.964;7.642;2022-11-04T08:17:31;12.10;99.90
3380;DHT22;1703;51.964;7.642;2022-11-04T08:19:58;12.10;99.90
3380;DHT22;1703;51.964;7.642;2022-11-04T08:22:24;12.00;99.90
3380;DHT22;1703;51.964;7.642;2022-11-04T08:24:51;11.90;99.90
3380;DHT22;1703;51.964;7.642;2022-11-04T08:27:19;12.00;99.90
3380;DHT22;1703;51.964;7.642;2022-11-04T08:29:47;12.00;99.90
3380;DHT22;1703;51.964;7.642;2022-11-04T08:32:14;11.90;99.90
3380;DHT22;1703;51.964;7.642;2022-11-04T08:34:40;11.90;99.90
3380;DHT22;1703;51.964;7.642;2022-11-04T08:37:07;11.80;99.90
3380;DHT22;1703;51.964;7.642;2022-11-04T08:39:34;11.80;99.90
3380;DHT22;1703;51.964;7.642;2022-11-04T08:42:01;11.70;99.90
3380;DHT22;1703;51.964;7.642;2022-11-04T08:44:29;11.60;99.90
3380;DHT22;1703;51.964;7.642;2022-11-04T08:46:56;11.60;99.90
3380;DHT22;1703;51.964;7.642;2022-11-04T08:49:22;11.60;99.90
3380;DHT22;1703;51.964;7.642;2022-11-04T08:51:49;11.60;99.90
3380;DHT22;1703;51.964;7.642;2022-11-04T08:54:21;11.60;99.90
3380;DHT22;1703;51.964;7.642;2022-11-04T08:56:48;11.60;99.90
3380;DHT22;1703;51.964;7.642;2022-11-04T08:59:15;11.70;99.90
3380;DHT22;1703;51.964;7.642;2022-11-04T09:01:43;11.70;99.90
3380;DHT22;1703;51.964;7.642;2022-11-04T09:04:11;11.80;99.90
3380;DHT22;1703;51.964;7.642;2022-11-04T09:06:41;11.90;99.90
3380;DHT22;1703;51.964;7.642;2022-11-04T09:09:11;12.00;99.90
3380;DHT22;1703;51.964;7.642;2022-11-04T09:11:41;12.10;99.90
3380;DHT22;1703;51.964;7.642;2022-11-04T09:14:08;12.30;99.90
3380;DHT22;1703;51.964;7.642;2022-11-04T09:16:36;12.40;99.90
3380;DHT22;1703;51.964;7.642;2022-11-04T09:19:05;12.50;99.90
3380;DHT22;1703;51.964;7.642;2022-11-04T09:21:32;12.50;99.90
3380;DHT22;1703;51.964;7.642;2022-11-04T09:23:58;12.40;99.90
3380;DHT22;1703;51.964;7.642;2022-11-04T09:26:25;12.40;99.90
3380;DHT22;1703;51.964;7.642;2022-11-04T09:28:53;12.50;99.90
3380;DHT22;1703;51.964;7.642;2022-11-04T09:31:20;12.40;99.90
3380;DHT22;1703;51.964;7.642;2022-11-04T09:33:47;12.30;99.90
3380;DHT22;1703;51.964;7.642;2022-11-04T09:36:16;12.20;99.90
3380;DHT22;1703;51.964;7.642;2022-11-04T09:38:43;12.20;99.90
3380;DHT22;1703;51.964;7.642;2022-11-04T09:44:26;12.20;99.90
3380;DHT22;1703;51.964;7.642;2022-11-04T09:46:59;12.20;99.90
3380;DHT22;1703;51.964;7.642;2022-11-04T09:49:28;12.20;99.90
3380;DHT22;1703;51.964;7.642;2022-11-04T09:51:57;12.20;99.90
3380;DHT22;1703;51.964;7.642;2022-11-04T09:54:27;12.10;99.90
3380;DHT22;1703;51.964;7.642;2022-11-04T09:56:58;12.10;99.90
3380;DHT22;1703;51.964;7.642;2022-11-04T09:59:29;12.10;99.90
3380;DHT22;1703;51.964;7.642;2022-11-04T10:02:19;12.00;99.90
3380;DHT22;1703;51.964;7.642;2022-11-04T10:04:57;12.00;99.90
3380;DHT22;1703;51.964;7.642;2022-11-04T10:07:43;12.00;99.90
3380;DHT22;1703;51.964;7.642;2022-11-04T10:10:16;12.10;99.90
3380;DHT22;1703;51.964;7.642;2022-11-04T10:13:05;12.20;99.90
3380;DHT22;1703;51.964;7.642;2022-11-04T10:15:44;12.30;99.90
3380;DHT22;1703;51.964;7.642;2022-11-04T10:18:26;12.30;99.90
3380;DHT22;1703;51.964;7.642;2022-11-04T10:21:01;12.50;99.90
3380;DHT22;1703;51.964;7.642;2022-11-04T10:23:36;12.60;99.90
3380;DHT22;1703;51.964;7.642;2022-11-04T10:26:08;12.60;99.90
3380;DHT22;1703;51.964;7.642;2022-11-04T10:28:39;12.50;99.90
3380;DHT22;1703;51.964;7.642;2022-11-04T10:31:09;12.50;99.90
3380;DHT22;1703;51.964;7.642;2022-11-04T10:33:40;12.40;99.90
3380;DHT22;1703;51.964;7.642;2022-11-04T10:36:09;12.40;99.90
3380;DHT22;1703;51.964;7.642;2022-11-04T10:38:42;12.20;99.90
3380;DHT22;1703;51.964;7.642;2022-11-04T10:41:21;12.20;99.90
3380;DHT22;1703;51.964;7.642;2022-11-04T10:43:53;12.30;99.90
3380;DHT22;1703;51.964;7.642;2022-11-04T10:46:31;12.20;99.90
3380;DHT22;1703;51.964;7.642;2022-11-04T10:49:07;12.20;99.90
3380;DHT22;1703;51.964;7.642;2022-11-04T10:51:35;12.20;99.90
3380;DHT22;1703;51.964;7.642;2022-11-04T10:54:07;12.20;99.90
3380;DHT22;1703;51.964;7.642;2022-11-04T10:56:40;12.20;99.90
3380;DHT22;1703;51.964;7.642;2022-11-04T10:59:18;12.20;99.90
3380;DHT22;1703;51.964;7.642;2022-11-04T11:01:49;12.30;99.90
3380;DHT22;1703;51.964;7.642;2022-11-04T11:04:25;12.40;99.90
3380;DHT22;1703;51.964;7.642;2022-11-04T11:06:53;12.60;99.90
3380;DHT22;1703;51.964;7.642;2022-11-04T11:09:24;12.60;99.90
3380;DHT22;1703;51.964;7.642;2022-11-04T11:11:55;12.60;99.90
3380;DHT22;1703;51.964;7.642;2022-11-04T11:14:33;12.60;99.90
3380;DHT22;1703;51.964;7.642;2022-11-04T11:17:21;12.70;99.90
3380;DHT22;1703;51.964;7.642;2022-11-04T11:19:52;12.80;99.90
3380;DHT22;1703;51.964;7.642;2022-11-04T11:22:34;12.90;99.90
3380;DHT22;1703;51.964;7.642;2022-11-04T11:25:21;13.00;99.90
3380;DHT22;1703;51.964;7.642;2022-11-04T11:27:50;13.00;99.90
3380;DHT22;1703;51.964;7.642;2022-11-04T11:30:23;13.00;99.90
3380;DHT22;1703;51.964;7.642;2022-11-04T11:32:52;13.00;99.90
3380;DHT22;1703;51.964;7.642;2022-11-04T11:35:24;13.30;99.90
3380;DHT22;1703;51.964;7.642;2022-11-04T11:37:51;13.40;99.90
3380;DHT22;1703;51.964;7.642;2022-11-04T11:40:27;13.40;99.90
3380;DHT22;1703;51.964;7.642;2022-11-04T11:42:57;13.50;99.90
3380;DHT22;1703;51.964;7.642;2022-11-04T11:45:24;13.60;99.90
3380;DHT22;1703;51.964;7.642;2022-11-04T11:47:52;13.70;99.90
3380;DHT22;1703;51.964;7.642;2022-11-04T11:50:22;13.80;99.90
3380;DHT22;1703;51.964;7.642;2022-11-04T11:53:12;13.90;99.90
3380;DHT22;1703;51.964;7.642;2022-11-04T11:55:44;14.00;99.90
3380;DHT22;1703;51.964;7.642;2022-11-04T11:58:21;14.20;99.90
3380;DHT22;1703;51.964;7.642;2022-11-04T12:00:53;14.40;99.90
3380;DHT22;1703;51.964;7.642;2022-11-04T12:03:29;14.50;99.90
3380;DHT22;1703;51.964;7.642;2022-11-04T12:06:22;14.40;99.90
3380;DHT22;1703;51.964;7.642;2022-11-04T12:09:11;14.50;99.90
3380;DHT22;1703;51.964;7.642;2022-11-04T12:11:55;14.40;99.90
3380;DHT22;1703;51.964;7.642;2022-11-04T12:14:33;14.30;99.90
3380;DHT22;1703;51.964;7.642;2022-11-04T12:17:13;14.30;99.90
3380;DHT22;1703;51.964;7.642;2022-11-04T12:19:53;14.30;99.90
3380;DHT22;1703;51.964;7.642;2022-11-04T12:22:27;14.50;99.90
3380;DHT22;1703;51.964;7.642;2022-11-04T12:25:03;14.50;99.90
3380;DHT22;1703;51.964;7.642;2022-11-04T12:27:42;14.60;99.90
3380;DHT22;1703;51.964;7.642;2022-11-04T12:30:13;14.70;99.90
3380;DHT22;1703;51.964;7.642;2022-11-04T12:32:59;14.80;99.90
3380;DHT22;1703;51.964;7.642;2022-11-04T12:35:39;14.80;99.90
3380;DHT22;1703;51.964;7.642;2022-11-04T12:38:24;14.70;99.90
3380;DHT22;1703;51.964;7.642;2022-11-04T12:41:02;14.80;99.90
3380;DHT22;1703;51.964;7.642;2022-11-04T12:43:35;14.80;99.90
3380;DHT22;1703;51.964;7.642;2022-11-04T12:46:11;14.80;99.90
3380;DHT22;1703;51.964;7.642;2022-11-04T12:48:59;14.80;99.90
3380;DHT22;1703;51.964;7.642;2022-11-04T12:51:36;14.70;99.90
3380;DHT22;1703;51.964;7.642;2022-11-04T12:54:28;14.50;99.90
3380;DHT22;1703;51.964;7.642;2022-11-04T12:57:09;14.60;99.90
3380;DHT22;1703;51.964;7.642;2022-11-04T12:59:53;14.60;99.90
3380;DHT22;1703;51.964;7.642;2022-11-04T13:02:27;14.60;99.90
3380;DHT22;1703;51.964;7.642;2022-11-04T13:04:59;14.60;99.90
3380;DHT22;1703;51.964;7.642;2022-11-04T13:07:31;14.40;99.90
3380;DHT22;1703;51.964;7.642;2022-11-04T13:10:02;14.30;99.90
3380;DHT22;1703;51.964;7.642;2022-11-04T13:12:31;14.30;99.90
3380;DHT22;1703;51.964;7.642;2022-11-04T13:15:06;14.30;99.90
3380;DHT22;1703;51.964;7.642;2022-11-04T13:17:38;14.20;99.90
3380;DHT22;1703;51.964;7.642;2022-11-04T13:20:15;14.10;99.90
3380;DHT22;1703;51.964;7.642;2022-11-04T13:22:45;14.10;99.90
3380;DHT22;1703;51.964;7.642;2022-11-04T13:25:14;14.10;99.90
3380;DHT22;1703;51.964;7.642;2022-11-04T13:27:44;14.10;99.90
3380;DHT22;1703;51.964;7.642;2022-11-04T13:30:20;14.10;99.90
3380;DHT22;1703;51.964;7.642;2022-11-04T13:32:53;14.00;99.90
3380;DHT22;1703;51.964;7.642;2022-11-04T13:35:27;14.00;99.90
3380;DHT22;1703;51.964;7.642;2022-11-04T13:37:59;14.00;99.90
3380;DHT22;1703;51.964;7.642;2022-11-04T13:40:34;14.00;99.90
3380;DHT22;1703;51.964;7.642;2022-11-04T13:43:15;13.90;99.90
3380;DHT22;1703;51.964;7.642;2022-11-04T13:46:15;13.90;99.90
3380;DHT22;1703;51.964;7.642;2022-11-04T13:48:52;13.80;99.90
3380;DHT22;1703;51.964;7.642;2022-11-04T13:51:20;13.80;99.90
3380;DHT22;1703;51.964;7.642;2022-11-04T13:53:49;13.70;99.90
3380;DHT22;1703;51.964;7.642;2022-11-04T13:56:31;13.70;99.90
3380;DHT22;1703;51.964;7.642;2022-11-04T13:59:03;13.80;99.90
3380;DHT22;1703;51.964;7.642;2022-11-04T14:01:33;13.80;99.90
3380;DHT22;1703;51.964;7.642;2022-11-04T14:04:17;13.90;99.90
3380;DHT22;1703;51.964;7.642;2022-11-04T14:06:50;14.00;99.90
3380;DHT22;1703;51.964;7.642;2022-11-04T14:12:33;13.90;99.90
3380;DHT22;1703;51.964;7.642;2022-11-04T14:15:12;13.90;99.90
3380;DHT22;1703;51.964;7.642;2022-11-04T14:18:03;13.90;99.90
3380;DHT22;1703;51.964;7.642;2022-11-04T14:20:32;13.80;99.90
3380;DHT22;1703;51.964;7.642;2022-11-04T14:23:03;13.70;99.90
3380;DHT22;1703;51.964;7.642;2022-11-04T14:25:33;13.70;99.90
3380;DHT22;1703;51.964;7.642;2022-11-04T14:28:02;13.70;99.90
3380;DHT22;1703;51.964;7.642;2022-11-04T14:30:44;13.70;99.90
3380;DHT22;1703;51.964;7.642;2022-11-04T14:33:34;13.70;99.90
3380;DHT22;1703;51.964;7.642;2022-11-04T14:36:22;13.70;99.90
3380;DHT22;1703;51.964;7.642;2022-11-04T14:38:55;13.70;99.90
3380;DHT22;1703;51.964;7.642;2022-11-04T14:41:31;13.70;99.90
3380;DHT22;1703;51.964;7.642;2022-11-04T14:44:01;13.60;99.90
3380;DHT22;1703;51.964;7.642;2022-11-04T14:46:30;13.50;99.90
3380;DHT22;1703;51.964;7.642;2022-11-04T14:49:02;13.60;99.90
3380;DHT22;1703;51.964;7.642;2022-11-04T14:51:32;13.60;99.90
3380;DHT22;1703;51.964;7.642;2022-11-04T14:54:03;13.60;99.90
3380;DHT22;1703;51.964;7.642;2022-11-04T14:56:31;13.60;99.90
3380;DHT22;1703;51.964;7.642;2022-11-04T14:59:00;13.70;99.90
3380;DHT22;1703;51.964;7.642;2022-11-04T15:01:29;13.60;99.90
3380;DHT22;1703;51.964;7.642;2022-11-04T15:04:23;13.70;99.90
3380;DHT22;1703;51.964;7.642;2022-11-04T15:06:53;13.70;99.90
3380;DHT22;1703;51.964;7.642;2022-11-04T15:09:24;13.60;99.90
3380;DHT22;1703;51.964;7.642;2022-11-04T15:11:59;13.60;99.90
3380;DHT22;1703;51.964;7.642;2022-11-04T15:14:44;13.60;99.90
3380;DHT22;1703;51.964;7.642;2022-11-04T15:17:16;13.50;99.90
3380;DHT22;1703;51.964;7.642;2022-11-04T15:19:49;13.50;99.90
3380;DHT22;1703;51.964;7.642;2022-11-04T15:22:17;13.50;99.90
3380;DHT22;1703;51.964;7.642;2022-11-04T15:24:44;13.50;99.90
3380;DHT22;1703;51.964;7.642;2022-11-04T15:27:14;13.60;99.90
3380;DHT22;1703;51.964;7.642;2022-11-04T15:29:52;13.60;99.90
3380;DHT22;1703;51.964;7.642;2022-11-04T15:32:19;13.60;99.90
3380;DHT22;1703;51.964;7.642;2022-11-04T15:34:47;13.60;99.90
3380;DHT22;1703;51.964;7.642;2022-11-04T15:37:15;13.50;99.90
3380;DHT22;1703;51.964;7.642;2022-11-04T15:39:44;13.50;99.90
3380;DHT22;1703;51.964;7.642;2022-11-04T15:42:17;13.40;99.90
3380;DHT22;1703;51.964;7.642;2022-11-04T15:45:33;13.40;99.90
3380;DHT22;1703;51.964;7.642;2022-11-04T15:48:21;13.50;99.90
3380;DHT22;1703;51.964;7.642;2022-11-04T15:50:53;13.50;99.90
3380;DHT22;1703;51.964;7.642;2022-11-04T15:53:23;13.50;99.90
3380;DHT22;1703;51.964;7.642;2022-11-04T15:55:50;13.40;99.90
3380;DHT22;1703;51.964;7.642;2022-11-04T15:58:17;13.40;99.90
3380;DHT22;1703;51.964;7.642;2022-11-04T16:00:51;13.40;99.90
3380;DHT22;1703;51.964;7.642;2022-11-04T16:03:19;13.40;99.90
3380;DHT22;1703;51.964;7.642;2022-11-04T16:06:01;13.40;99.90
3380;DHT22;1703;51.964;7.642;2022-11-04T16:08:29;13.40;99.90
3380;DHT22;1703;51.964;7.642;2022-11-04T16:11:12;13.40;99.90
3380;DHT22;1703;51.964;7.642;2022-11-04T16:13:39;13.50;99.90
3380;DHT22;1703;51.964;7.642;2022-11-04T16:16:18;13.50;99.90
3380;DHT22;1703;51.964;7.642;2022-11-04T16:18:50;13.50;99.90
3380;DHT22;1703;51.964;7.642;2022-11-04T16:21:24;13.40;99.90
3380;DHT22;1703;51.964;7.642;2022-11-04T16:23:55;13.40;99.90
3380;DHT22;1703;51.964;7.642;2022-11-04T16:26:24;13.30;99.90
3380;DHT22;1703;51.964;7.642;2022-11-04T16:28:53;13.20;99.90
3380;DHT22;1703;51.964;7.642;2022-11-04T16:31:26;13.20;99.90
3380;DHT22;1703;51.964;7.642;2022-11-04T16:33:53;13.20;99.90
3380;DHT22;1703;51.964;7.642;2022-11-04T16:36:22;13.10;99.90
3380;DHT22;1703;51.964;7.642;2022-11-04T16:38:53;13.00;99.90
3380;DHT22;1703;51.964;7.642;2022-11-04T16:41:20;13.00;99.90